sensor_id;sensor_type;location;lat;lon;timestamp;P1;durP1;ratioP1;P2;durP2;ratioP2
20884;SDS011;10602;48.000;9.654;2022-10-30T00:00:52;9.17;;;6.03;;
20884;SDS011;10602;48.000;9.654;2022-10-30T00:03:20;9.97;;;6.50;;
20884;SDS011;10602;48.000;9.654;2022-10-30T00:05:49;8.73;;;5.60;;
20884;SDS011;10602;48.000;9.654;2022-10-30T00:08:17;11.27;;;6.17;;
20884;SDS011;10602;48.000;9.654;2022-10-30T00:10:46;10.90;;;6.03;;
20884;SDS011;10602;48.000;9.654;2022-10-30T00:13:17;10.03;;;5.57;;
20884;SDS011;10602;48.000;9.654;2022-10-30T00:15:50;10.50;;;5.83;;
20884;SDS011;10602;48.000;9.654;2022-10-30T00:18:17;8.67;;;5.87;;
20884;SDS011;10602;48.000;9.654;2022-10-30T00:20:45;6.60;;;4.97;;
20884;SDS011;10602;48.000;9.654;2022-10-30T00:23:14;10.33;;;5.33;;
20884;SDS011;10602;48.000;9.654;2022-10-30T00:25:41;6.13;;;4.70;;
20884;SDS011;10602;48.000;9.654;2022-10-30T00:28:09;6.83;;;5.10;;
20884;SDS011;10602;48.000;9.654;2022-10-30T00:30:36;7.00;;;5.27;;
20884;SDS011;10602;48.000;9.654;2022-10-30T00:33:04;7.33;;;4.87;;
20884;SDS011;10602;48.000;9.654;2022-10-30T00:35:31;7.77;;;4.80;;
20884;SDS011;10602;48.000;9.654;2022-10-30T00:37:59;8.47;;;5.30;;
20884;SDS011;10602;48.000;9.654;2022-10-30T00:40:27;8.53;;;5.00;;
20884;SDS011;10602;48.000;9.654;2022-10-30T00:42:55;8.27;;;5.20;;
20884;SDS011;10602;48.000;9.654;2022-10-30T00:45:22;5.67;;;4.77;;
20884;SDS011;10602;48.000;9.654;2022-10-30T00:47:58;7.27;;;4.80;;
20884;SDS011;10602;48.000;9.654;2022-10-30T00:50:29;7.40;;;5.30;;
20884;SDS011;10602;48.000;9.654;2022-10-30T00:55:32;9.73;;;5.60;;
20884;SDS011;10602;48.000;9.654;2022-10-30T00:58:02;7.83;;;5.10;;
20884;SDS011;10602;48.000;9.654;2022-10-30T01:00:32;9.20;;;5.40;;
20884;SDS011;10602;48.000;9.654;2022-10-30T01:03:02;6.43;;;4.83;;
20884;SDS011;10602;48.000;9.654;2022-10-30T01:05:30;7.47;;;5.07;;
20884;SDS011;10602;48.000;9.654;2022-10-30T01:07:59;6.13;;;4.53;;
20884;SDS011;10602;48.000;9.654;2022-10-30T01:10:26;6.13;;;4.50;;
20884;SDS011;10602;48.000;9.654;2022-10-30T01:12:54;6.53;;;4.80;;
20884;SDS011;10602;48.000;9.654;2022-10-30T01:15:25;7.10;;;4.07;;
20884;SDS011;10602;48.000;9.654;2022-10-30T01:18:01;5.40;;;4.13;;
20884;SDS011;10602;48.000;9.654;2022-10-30T01:23:36;4.40;;;3.77;;
20884;SDS011;10602;48.000;9.654;2022-10-30T01:28:57;5.70;;;3.67;;
20884;SDS011;10602;48.000;9.654;2022-10-30T01:39:21;4.73;;;3.50;;
20884;SDS011;10602;48.000;9.654;2022-10-30T01:41:51;4.90;;;3.87;;
20884;SDS011;10602;48.000;9.654;2022-10-30T01:44:24;4.47;;;3.87;;
20884;SDS011;10602;48.000;9.654;2022-10-30T01:47:11;5.60;;;4.10;;
20884;SDS011;10602;48.000;9.654;2022-10-30T01:52:41;4.33;;;3.60;;
20884;SDS011;10602;48.000;9.654;2022-10-30T01:57:58;4.90;;;3.77;;
20884;SDS011;10602;48.000;9.654;2022-10-30T02:00:27;5.13;;;3.77;;
20884;SDS011;10602;48.000;9.654;2022-10-30T02:02:55;6.13;;;3.67;;
20884;SDS011;10602;48.000;9.654;2022-10-30T02:05:27;5.57;;;3.80;;
20884;SDS011;10602;48.000;9.654;2022-10-30T02:08:08;4.30;;;3.83;;
20884;SDS011;10602;48.000;9.654;2022-10-30T02:10:35;7.03;;;4.00;;
20884;SDS011;10602;48.000;9.654;2022-10-30T02:13:04;9.30;;;4.33;;
20884;SDS011;10602;48.000;9.654;2022-10-30T02:15:31;4.60;;;3.87;;
20884;SDS011;10602;48.000;9.654;2022-10-30T02:18:00;6.83;;;4.20;;
20884;SDS011;10602;48.000;9.654;2022-10-30T02:20:27;5.47;;;3.57;;
20884;SDS011;10602;48.000;9.654;2022-10-30T02:22:55;5.10;;;4.10;;
20884;SDS011;10602;48.000;9.654;2022-10-30T02:25:23;10.33;;;4.73;;
20884;SDS011;10602;48.000;9.654;2022-10-30T02:27:50;9.10;;;4.57;;
20884;SDS011;10602;48.000;9.654;2022-10-30T02:30:18;13.17;;;5.30;;
20884;SDS011;10602;48.000;9.654;2022-10-30T02:32:48;11.13;;;5.10;;
20884;SDS011;10602;48.000;9.654;2022-10-30T02:35:15;11.83;;;5.80;;
20884;SDS011;10602;48.000;9.654;2022-10-30T02:37:42;8.70;;;5.20;;
20884;SDS011;10602;48.000;9.654;2022-10-30T02:40:11;8.97;;;5.50;;
20884;SDS011;10602;48.000;9.654;2022-10-30T02:42:39;12.20;;;5.90;;
20884;SDS011;10602;48.000;9.654;2022-10-30T02:45:07;10.90;;;5.67;;
20884;SDS011;10602;48.000;9.654;2022-10-30T02:47:35;13.03;;;6.43;;
20884;SDS011;10602;48.000;9.654;2022-10-30T02:50:02;11.03;;;6.50;;
20884;SDS011;10602;48.000;9.654;2022-10-30T02:52:30;8.23;;;5.83;;
20884;SDS011;10602;48.000;9.654;2022-10-30T02:54:58;11.07;;;5.70;;
20884;SDS011;10602;48.000;9.654;2022-10-30T02:57:25;9.37;;;4.67;;
20884;SDS011;10602;48.000;9.654;2022-10-30T02:59:53;7.47;;;4.80;;
20884;SDS011;10602;48.000;9.654;2022-10-30T03:02:20;5.70;;;4.10;;
20884;SDS011;10602;48.000;9.654;2022-10-30T03:04:48;5.03;;;4.00;;
20884;SDS011;10602;48.000;9.654;2022-10-30T03:07:15;7.10;;;4.80;;
20884;SDS011;10602;48.000;9.654;2022-10-30T03:09:43;8.63;;;5.30;;
20884;SDS011;10602;48.000;9.654;2022-10-30T03:12:10;7.50;;;4.90;;
20884;SDS011;10602;48.000;9.654;2022-10-30T03:14:38;8.17;;;5.17;;
20884;SDS011;10602;48.000;9.654;2022-10-30T03:17:05;7.03;;;5.20;;
20884;SDS011;10602;48.000;9.654;2022-10-30T03:19:33;7.67;;;5.10;;
20884;SDS011;10602;48.000;9.654;2022-10-30T03:22:01;9.50;;;4.90;;
20884;SDS011;10602;48.000;9.654;2022-10-30T03:24:28;8.90;;;5.50;;
20884;SDS011;10602;48.000;9.654;2022-10-30T03:26:56;9.17;;;5.50;;
20884;SDS011;10602;48.000;9.654;2022-10-30T03:29:23;10.47;;;5.97;;
20884;SDS011;10602;48.000;9.654;2022-10-30T03:31:51;6.50;;;4.80;;
20884;SDS011;10602;48.000;9.654;2022-10-30T03:34:18;10.93;;;5.47;;
20884;SDS011;10602;48.000;9.654;2022-10-30T03:36:46;8.93;;;5.33;;
20884;SDS011;10602;48.000;9.654;2022-10-30T03:39:13;9.03;;;5.30;;
20884;SDS011;10602;48.000;9.654;2022-10-30T03:41:41;5.87;;;5.00;;
20884;SDS011;10602;48.000;9.654;2022-10-30T03:44:08;8.10;;;5.70;;
20884;SDS011;10602;48.000;9.654;2022-10-30T03:46:36;7.47;;;5.30;;
20884;SDS011;10602;48.000;9.654;2022-10-30T03:49:04;7.63;;;5.87;;
20884;SDS011;10602;48.000;9.654;2022-10-30T03:51:32;5.43;;;4.83;;
20884;SDS011;10602;48.000;9.654;2022-10-30T03:53:59;8.40;;;5.17;;
20884;SDS011;10602;48.000;9.654;2022-10-30T03:56:26;7.10;;;5.20;;
20884;SDS011;10602;48.000;9.654;2022-10-30T03:58:54;6.90;;;4.90;;
20884;SDS011;10602;48.000;9.654;2022-10-30T04:01:21;7.03;;;4.80;;
20884;SDS011;10602;48.000;9.654;2022-10-30T04:03:50;9.33;;;5.10;;
20884;SDS011;10602;48.000;9.654;2022-10-30T04:06:18;10.20;;;5.47;;
20884;SDS011;10602;48.000;9.654;2022-10-30T04:08:45;8.50;;;5.27;;
20884;SDS011;10602;48.000;9.654;2022-10-30T04:11:14;7.87;;;6.17;;
20884;SDS011;10602;48.000;9.654;2022-10-30T04:13:42;10.90;;;5.93;;
20884;SDS011;10602;48.000;9.654;2022-10-30T04:16:09;8.23;;;5.60;;
20884;SDS011;10602;48.000;9.654;2022-10-30T04:18:37;9.70;;;6.77;;
20884;SDS011;10602;48.000;9.654;2022-10-30T04:21:05;12.07;;;6.70;;
20884;SDS011;10602;48.000;9.654;2022-10-30T04:23:32;10.77;;;6.97;;
20884;SDS011;10602;48.000;9.654;2022-10-30T04:26:00;10.50;;;6.33;;
20884;SDS011;10602;48.000;9.654;2022-10-30T04:28:27;9.47;;;6.33;;
20884;SDS011;10602;48.000;9.654;2022-10-30T04:30:55;13.60;;;6.83;;
20884;SDS011;10602;48.000;9.654;2022-10-30T04:33:22;12.40;;;6.77;;
20884;SDS011;10602;48.000;9.654;2022-10-30T04:35:50;15.50;;;6.80;;
20884;SDS011;10602;48.000;9.654;2022-10-30T04:38:19;9.40;;;6.33;;
20884;SDS011;10602;48.000;9.654;2022-10-30T04:40:47;15.37;;;6.87;;
20884;SDS011;10602;48.000;9.654;2022-10-30T04:43:14;11.87;;;6.43;;
20884;SDS011;10602;48.000;9.654;2022-10-30T04:45:42;15.10;;;6.97;;
20884;SDS011;10602;48.000;9.654;2022-10-30T04:48:13;14.23;;;7.40;;
20884;SDS011;10602;48.000;9.654;2022-10-30T04:50:42;19.03;;;7.30;;
20884;SDS011;10602;48.000;9.654;2022-10-30T04:53:13;25.60;;;8.57;;
20884;SDS011;10602;48.000;9.654;2022-10-30T04:55:43;16.47;;;8.37;;
20884;SDS011;10602;48.000;9.654;2022-10-30T04:58:11;21.70;;;8.00;;
20884;SDS011;10602;48.000;9.654;2022-10-30T05:00:39;16.87;;;8.70;;
20884;SDS011;10602;48.000;9.654;2022-10-30T05:03:08;15.27;;;8.20;;
20884;SDS011;10602;48.000;9.654;2022-10-30T05:05:37;14.87;;;8.63;;
20884;SDS011;10602;48.000;9.654;2022-10-30T05:08:05;17.53;;;8.40;;
20884;SDS011;10602;48.000;9.654;2022-10-30T05:10:32;20.37;;;9.23;;
20884;SDS011;10602;48.000;9.654;2022-10-30T05:13:00;22.53;;;8.40;;
20884;SDS011;10602;48.000;9.654;2022-10-30T05:15:27;16.07;;;8.83;;
20884;SDS011;10602;48.000;9.654;2022-10-30T05:17:55;18.97;;;8.20;;
20884;SDS011;10602;48.000;9.654;2022-10-30T05:20:22;15.97;;;9.00;;
20884;SDS011;10602;48.000;9.654;2022-10-30T05:22:58;14.27;;;8.90;;
20884;SDS011;10602;48.000;9.654;2022-10-30T05:25:23;14.23;;;8.57;;
20884;SDS011;10602;48.000;9.654;2022-10-30T05:27:56;15.57;;;9.00;;
20884;SDS011;10602;48.000;9.654;2022-10-30T05:30:30;19.47;;;9.40;;
20884;SDS011;10602;48.000;9.654;2022-10-30T05:33:00;16.50;;;8.83;;
20884;SDS011;10602;48.000;9.654;2022-10-30T05:35:30;13.20;;;7.80;;
20884;SDS011;10602;48.000;9.654;2022-10-30T05:37:58;18.57;;;8.50;;
20884;SDS011;10602;48.000;9.654;2022-10-30T05:40:26;14.97;;;7.40;;
20884;SDS011;10602;48.000;9.654;2022-10-30T05:42:53;24.37;;;9.17;;
20884;SDS011;10602;48.000;9.654;2022-10-30T05:45:21;15.73;;;8.67;;
20884;SDS011;10602;48.000;9.654;2022-10-30T05:47:55;17.17;;;7.83;;
20884;SDS011;10602;48.000;9.654;2022-10-30T05:50:27;19.53;;;8.17;;
20884;SDS011;10602;48.000;9.654;2022-10-30T05:53:01;22.97;;;9.37;;
20884;SDS011;10602;48.000;9.654;2022-10-30T05:55:26;19.27;;;8.73;;
20884;SDS011;10602;48.000;9.654;2022-10-30T05:57:58;15.33;;;8.40;;
20884;SDS011;10602;48.000;9.654;2022-10-30T06:00:27;27.13;;;10.23;;
20884;SDS011;10602;48.000;9.654;2022-10-30T06:02:59;24.93;;;9.47;;
20884;SDS011;10602;48.000;9.654;2022-10-30T06:05:31;22.43;;;9.37;;
20884;SDS011;10602;48.000;9.654;2022-10-30T06:08:00;17.10;;;9.43;;
20884;SDS011;10602;48.000;9.654;2022-10-30T06:10:28;17.37;;;8.97;;
20884;SDS011;10602;48.000;9.654;2022-10-30T06:12:58;11.23;;;8.43;;
20884;SDS011;10602;48.000;9.654;2022-10-30T06:15:27;18.97;;;9.17;;
20884;SDS011;10602;48.000;9.654;2022-10-30T06:17:55;19.63;;;9.00;;
20884;SDS011;10602;48.000;9.654;2022-10-30T06:20:24;16.90;;;9.40;;
20884;SDS011;10602;48.000;9.654;2022-10-30T06:22:57;19.27;;;9.00;;
20884;SDS011;10602;48.000;9.654;2022-10-30T06:25:26;19.23;;;9.13;;
20884;SDS011;10602;48.000;9.654;2022-10-30T06:27:54;15.57;;;9.07;;
20884;SDS011;10602;48.000;9.654;2022-10-30T06:30:23;14.40;;;9.37;;
20884;SDS011;10602;48.000;9.654;2022-10-30T06:32:57;14.37;;;10.37;;
20884;SDS011;10602;48.000;9.654;2022-10-30T06:35:26;11.93;;;8.80;;
20884;SDS011;10602;48.000;9.654;2022-10-30T06:37:54;13.23;;;8.80;;
20884;SDS011;10602;48.000;9.654;2022-10-30T06:40:24;13.33;;;9.67;;
20884;SDS011;10602;48.000;9.654;2022-10-30T06:42:52;13.07;;;9.83;;
20884;SDS011;10602;48.000;9.654;2022-10-30T06:45:20;14.40;;;9.57;;
20884;SDS011;10602;48.000;9.654;2022-10-30T06:47:49;13.90;;;9.80;;
20884;SDS011;10602;48.000;9.654;2022-10-30T06:50:17;17.57;;;10.27;;
20884;SDS011;10602;48.000;9.654;2022-10-30T06:52:46;18.50;;;11.93;;
20884;SDS011;10602;48.000;9.654;2022-10-30T06:55:14;17.37;;;13.13;;
20884;SDS011;10602;48.000;9.654;2022-10-30T06:57:42;14.33;;;12.00;;
20884;SDS011;10602;48.000;9.654;2022-10-30T07:00:10;18.97;;;13.83;;
20884;SDS011;10602;48.000;9.654;2022-10-30T07:02:38;23.00;;;15.50;;
20884;SDS011;10602;48.000;9.654;2022-10-30T07:05:05;17.70;;;13.27;;
20884;SDS011;10602;48.000;9.654;2022-10-30T07:07:33;13.43;;;10.60;;
20884;SDS011;10602;48.000;9.654;2022-10-30T07:10:01;13.43;;;8.10;;
20884;SDS011;10602;48.000;9.654;2022-10-30T07:12:30;8.47;;;7.50;;
20884;SDS011;10602;48.000;9.654;2022-10-30T07:14:57;10.10;;;7.83;;
20884;SDS011;10602;48.000;9.654;2022-10-30T07:17:25;11.60;;;8.30;;
20884;SDS011;10602;48.000;9.654;2022-10-30T07:19:52;8.63;;;7.70;;
20884;SDS011;10602;48.000;9.654;2022-10-30T07:22:20;9.50;;;8.07;;
20884;SDS011;10602;48.000;9.654;2022-10-30T07:24:48;11.27;;;8.07;;
20884;SDS011;10602;48.000;9.654;2022-10-30T07:27:15;9.97;;;7.83;;
20884;SDS011;10602;48.000;9.654;2022-10-30T07:29:43;10.97;;;7.57;;
20884;SDS011;10602;48.000;9.654;2022-10-30T07:32:11;9.87;;;8.07;;
20884;SDS011;10602;48.000;9.654;2022-10-30T07:34:38;9.00;;;7.90;;
20884;SDS011;10602;48.000;9.654;2022-10-30T07:37:06;10.97;;;6.77;;
20884;SDS011;10602;48.000;9.654;2022-10-30T07:39:33;8.63;;;6.83;;
20884;SDS011;10602;48.000;9.654;2022-10-30T07:42:01;11.93;;;6.67;;
20884;SDS011;10602;48.000;9.654;2022-10-30T07:44:29;9.43;;;6.93;;
20884;SDS011;10602;48.000;9.654;2022-10-30T07:46:56;8.93;;;6.50;;
20884;SDS011;10602;48.000;9.654;2022-10-30T07:49:23;7.57;;;6.80;;
20884;SDS011;10602;48.000;9.654;2022-10-30T07:51:51;15.17;;;7.20;;
20884;SDS011;10602;48.000;9.654;2022-10-30T07:54:18;7.87;;;7.07;;
20884;SDS011;10602;48.000;9.654;2022-10-30T07:56:46;8.03;;;6.87;;
20884;SDS011;10602;48.000;9.654;2022-10-30T07:59:14;8.70;;;6.60;;
20884;SDS011;10602;48.000;9.654;2022-10-30T08:01:41;8.10;;;6.77;;
20884;SDS011;10602;48.000;9.654;2022-10-30T08:04:09;7.17;;;6.47;;
20884;SDS011;10602;48.000;9.654;2022-10-30T08:06:38;11.83;;;7.60;;
20884;SDS011;10602;48.000;9.654;2022-10-30T08:09:06;7.80;;;6.97;;
20884;SDS011;10602;48.000;9.654;2022-10-30T08:11:33;8.93;;;7.93;;
20884;SDS011;10602;48.000;9.654;2022-10-30T08:14:01;8.27;;;7.47;;
20884;SDS011;10602;48.000;9.654;2022-10-30T08:16:28;8.97;;;8.07;;
20884;SDS011;10602;48.000;9.654;2022-10-30T08:18:56;8.40;;;7.50;;
20884;SDS011;10602;48.000;9.654;2022-10-30T08:21:23;8.40;;;7.33;;
20884;SDS011;10602;48.000;9.654;2022-10-30T08:23:51;7.80;;;7.07;;
20884;SDS011;10602;48.000;9.654;2022-10-30T08:26:18;8.80;;;7.90;;
20884;SDS011;10602;48.000;9.654;2022-10-30T08:28:46;10.37;;;7.87;;
20884;SDS011;10602;48.000;9.654;2022-10-30T08:31:13;8.30;;;7.50;;
20884;SDS011;10602;48.000;9.654;2022-10-30T08:33:41;8.63;;;7.50;;
20884;SDS011;10602;48.000;9.654;2022-10-30T08:36:08;8.40;;;7.43;;
20884;SDS011;10602;48.000;9.654;2022-10-30T08:38:36;8.97;;;7.57;;
20884;SDS011;10602;48.000;9.654;2022-10-30T08:41:03;8.67;;;7.77;;
20884;SDS011;10602;48.000;9.654;2022-10-30T08:43:31;8.30;;;7.37;;
20884;SDS011;10602;48.000;9.654;2022-10-30T08:45:58;11.13;;;7.40;;
20884;SDS011;10602;48.000;9.654;2022-10-30T08:48:26;9.40;;;8.47;;
20884;SDS011;10602;48.000;9.654;2022-10-30T08:50:57;11.80;;;8.13;;
20884;SDS011;10602;48.000;9.654;2022-10-30T08:53:26;9.73;;;8.73;;
20884;SDS011;10602;48.000;9.654;2022-10-30T08:55:54;10.00;;;8.77;;
20884;SDS011;10602;48.000;9.654;2022-10-30T08:58:21;10.23;;;9.23;;
20884;SDS011;10602;48.000;9.654;2022-10-30T09:00:49;13.50;;;9.27;;
20884;SDS011;10602;48.000;9.654;2022-10-30T09:03:16;11.00;;;8.80;;
20884;SDS011;10602;48.000;9.654;2022-10-30T09:05:44;11.67;;;9.63;;
20884;SDS011;10602;48.000;9.654;2022-10-30T09:08:11;11.57;;;9.53;;
20884;SDS011;10602;48.000;9.654;2022-10-30T09:10:39;13.17;;;9.53;;
20884;SDS011;10602;48.000;9.654;2022-10-30T09:13:07;12.63;;;9.53;;
20884;SDS011;10602;48.000;9.654;2022-10-30T09:15:35;11.60;;;8.93;;
20884;SDS011;10602;48.000;9.654;2022-10-30T09:18:03;12.00;;;8.93;;
20884;SDS011;10602;48.000;9.654;2022-10-30T09:20:31;12.10;;;8.43;;
20884;SDS011;10602;48.000;9.654;2022-10-30T09:22:58;11.30;;;8.70;;
20884;SDS011;10602;48.000;9.654;2022-10-30T09:25:26;10.47;;;8.60;;
20884;SDS011;10602;48.000;9.654;2022-10-30T09:27:53;8.77;;;7.87;;
20884;SDS011;10602;48.000;9.654;2022-10-30T09:30:23;9.67;;;8.13;;
20884;SDS011;10602;48.000;9.654;2022-10-30T09:33:00;9.43;;;7.93;;
20884;SDS011;10602;48.000;9.654;2022-10-30T09:35:26;7.70;;;7.00;;
20884;SDS011;10602;48.000;9.654;2022-10-30T09:37:54;8.50;;;6.83;;
20884;SDS011;10602;48.000;9.654;2022-10-30T09:40:24;8.13;;;7.13;;
20884;SDS011;10602;48.000;9.654;2022-10-30T09:42:55;8.43;;;7.07;;
20884;SDS011;10602;48.000;9.654;2022-10-30T09:51:23;8.30;;;7.30;;
20884;SDS011;10602;48.000;9.654;2022-10-30T09:54:13;8.53;;;7.20;;
20884;SDS011;10602;48.000;9.654;2022-10-30T09:56:44;9.65;;;7.12;;
20884;SDS011;10602;48.000;9.654;2022-10-30T10:09:42;10.00;;;6.92;;
20884;SDS011;10602;48.000;9.654;2022-10-30T10:12:11;8.95;;;6.15;;
20884;SDS011;10602;48.000;9.654;2022-10-30T10:14:42;8.80;;;6.15;;
20884;SDS011;10602;48.000;9.654;2022-10-30T10:17:17;9.03;;;6.50;;
20884;SDS011;10602;48.000;9.654;2022-10-30T10:19:48;8.93;;;5.42;;
20884;SDS011;10602;48.000;9.654;2022-10-30T10:22:23;6.80;;;4.65;;
20884;SDS011;10602;48.000;9.654;2022-10-30T10:24:57;6.75;;;4.47;;
20884;SDS011;10602;48.000;9.654;2022-10-30T10:30:24;8.93;;;5.25;;
20884;SDS011;10602;48.000;9.654;2022-10-30T10:38:40;7.37;;;4.35;;
20884;SDS011;10602;48.000;9.654;2022-10-30T10:41:14;8.07;;;4.40;;
20884;SDS011;10602;48.000;9.654;2022-10-30T10:43:48;5.50;;;3.87;;
20884;SDS011;10602;48.000;9.654;2022-10-30T10:49:12;6.05;;;3.80;;
20884;SDS011;10602;48.000;9.654;2022-10-30T10:51:53;8.83;;;4.20;;
20884;SDS011;10602;48.000;9.654;2022-10-30T10:54:24;7.93;;;4.17;;
20884;SDS011;10602;48.000;9.654;2022-10-30T10:56:58;6.30;;;3.40;;
20884;SDS011;10602;48.000;9.654;2022-10-30T10:59:41;11.68;;;4.17;;
20884;SDS011;10602;48.000;9.654;2022-10-30T11:02:26;6.53;;;4.10;;
20884;SDS011;10602;48.000;9.654;2022-10-30T11:04:58;7.85;;;3.80;;
20884;SDS011;10602;48.000;9.654;2022-10-30T11:07:29;8.33;;;4.10;;
20884;SDS011;10602;48.000;9.654;2022-10-30T11:10:05;8.68;;;4.65;;
20884;SDS011;10602;48.000;9.654;2022-10-30T11:12:37;8.45;;;4.03;;
20884;SDS011;10602;48.000;9.654;2022-10-30T11:15:14;7.55;;;3.50;;
20884;SDS011;10602;48.000;9.654;2022-10-30T11:17:38;5.75;;;3.22;;
20884;SDS011;10602;48.000;9.654;2022-10-30T11:20:16;9.63;;;4.10;;
20884;SDS011;10602;48.000;9.654;2022-10-30T11:22:44;6.22;;;3.87;;
20884;SDS011;10602;48.000;9.654;2022-10-30T11:25:19;9.40;;;4.20;;
20884;SDS011;10602;48.000;9.654;2022-10-30T11:27:48;8.45;;;3.87;;
20884;SDS011;10602;48.000;9.654;2022-10-30T11:30:26;7.83;;;3.83;;
20884;SDS011;10602;48.000;9.654;2022-10-30T11:32:53;8.45;;;3.62;;
20884;SDS011;10602;48.000;9.654;2022-10-30T11:35:21;6.35;;;3.25;;
20884;SDS011;10602;48.000;9.654;2022-10-30T11:37:49;8.88;;;4.25;;
20884;SDS011;10602;48.000;9.654;2022-10-30T11:40:19;8.78;;;3.25;;
20884;SDS011;10602;48.000;9.654;2022-10-30T11:42:49;6.25;;;4.00;;
20884;SDS011;10602;48.000;9.654;2022-10-30T11:45:29;7.37;;;3.72;;
20884;SDS011;10602;48.000;9.654;2022-10-30T11:48:01;8.58;;;3.65;;
20884;SDS011;10602;48.000;9.654;2022-10-30T11:50:34;6.33;;;3.22;;
20884;SDS011;10602;48.000;9.654;2022-10-30T11:53:25;7.33;;;3.20;;
20884;SDS011;10602;48.000;9.654;2022-10-30T11:55:40;7.92;;;3.40;;
20884;SDS011;10602;48.000;9.654;2022-10-30T11:58:31;7.75;;;3.58;;
20884;SDS011;10602;48.000;9.654;2022-10-30T12:01:10;9.80;;;3.15;;
20884;SDS011;10602;48.000;9.654;2022-10-30T12:03:35;8.43;;;3.25;;
20884;SDS011;10602;48.000;9.654;2022-10-30T12:06:07;6.83;;;3.33;;
20884;SDS011;10602;48.000;9.654;2022-10-30T12:09:02;7.25;;;2.87;;
20884;SDS011;10602;48.000;9.654;2022-10-30T12:11:32;5.78;;;3.10;;
20884;SDS011;10602;48.000;9.654;2022-10-30T12:14:00;6.08;;;3.22;;
20884;SDS011;10602;48.000;9.654;2022-10-30T12:16:28;5.87;;;3.30;;
20884;SDS011;10602;48.000;9.654;2022-10-30T12:19:10;7.28;;;3.30;;
20884;SDS011;10602;48.000;9.654;2022-10-30T12:21:35;6.20;;;3.00;;
20884;SDS011;10602;48.000;9.654;2022-10-30T12:24:05;8.55;;;3.55;;
20884;SDS011;10602;48.000;9.654;2022-10-30T12:26:36;6.70;;;3.10;;
20884;SDS011;10602;48.000;9.654;2022-10-30T12:29:07;5.20;;;3.08;;
20884;SDS011;10602;48.000;9.654;2022-10-30T12:31:37;9.18;;;3.25;;
20884;SDS011;10602;48.000;9.654;2022-10-30T12:34:50;9.53;;;2.98;;
20884;SDS011;10602;48.000;9.654;2022-10-30T12:36:42;6.87;;;3.25;;
20884;SDS011;10602;48.000;9.654;2022-10-30T12:39:17;5.85;;;3.42;;
20884;SDS011;10602;48.000;9.654;2022-10-30T12:41:55;7.33;;;3.12;;
20884;SDS011;10602;48.000;9.654;2022-10-30T12:44:27;5.65;;;3.15;;
20884;SDS011;10602;48.000;9.654;2022-10-30T12:46:59;6.53;;;3.12;;
20884;SDS011;10602;48.000;9.654;2022-10-30T12:49:39;5.85;;;3.12;;
20884;SDS011;10602;48.000;9.654;2022-10-30T12:55:04;7.55;;;3.30;;
20884;SDS011;10602;48.000;9.654;2022-10-30T12:57:34;8.85;;;3.17;;
20884;SDS011;10602;48.000;9.654;2022-10-30T13:00:05;7.30;;;3.08;;
20884;SDS011;10602;48.000;9.654;2022-10-30T13:02:43;6.58;;;3.00;;
20884;SDS011;10602;48.000;9.654;2022-10-30T13:08:04;10.28;;;3.10;;
20884;SDS011;10602;48.000;9.654;2022-10-30T23:23:37;19.00;;;11.10;;
20884;SDS011;10602;48.000;9.654;2022-10-30T23:26:09;18.53;;;10.13;;
20884;SDS011;10602;48.000;9.654;2022-10-30T23:28:37;14.30;;;9.63;;
20884;SDS011;10602;48.000;9.654;2022-10-30T23:31:27;17.60;;;11.53;;
20884;SDS011;10602;48.000;9.654;2022-10-30T23:33:54;17.37;;;10.97;;
20884;SDS011;10602;48.000;9.654;2022-10-30T23:36:25;10.70;;;9.63;;
20884;SDS011;10602;48.000;9.654;2022-10-30T23:38:56;11.03;;;9.97;;
20884;SDS011;10602;48.000;9.654;2022-10-30T23:41:27;10.47;;;9.37;;
20884;SDS011;10602;48.000;9.654;2022-10-30T23:43:56;12.97;;;10.20;;
20884;SDS011;10602;48.000;9.654;2022-10-30T23:46:25;21.07;;;10.40;;
20884;SDS011;10602;48.000;9.654;2022-10-30T23:48:53;17.73;;;9.40;;
20884;SDS011;10602;48.000;9.654;2022-10-30T23:51:22;27.87;;;9.67;;
20884;SDS011;10602;48.000;9.654;2022-10-30T23:53:50;20.80;;;8.87;;
20884;SDS011;10602;48.000;9.654;2022-10-30T23:56:17;16.90;;;8.73;;
20884;SDS011;10602;48.000;9.654;2022-10-30T23:58:45;12.23;;;9.10;;
